Time;durP1;ratioP1;P1;durP2;ratioP2;P2;SDS_P1;SDS_P2;PMS_P1;PMS_P2;Temp;Humidity;BMP_temperature;BMP_pressure;BME280_temperature;BME280_humidity;BME280_pressure;Samples;Min_cycle;Max_cycle;Signal;HPM_P1;HPM_P2
2022/04/23 00:01:01;;;;;;;3.38;3.15;;;;;;;;;;12650779;28;20035;-76
2022/04/23 00:07:04;;;;;;;3.22;2.95;;;;;;;;;;12642463;28;20047;-76
2022/04/23 00:13:06;;;;;;;3.40;3.20;;;;;;;;;;12643906;28;20588;-76
2022/04/23 00:19:07;;;;;;;3.60;3.30;;;;;;;;;;12625573;28;20488;-76
2022/04/23 00:25:09;;;;;;;3.67;3.38;;;;;;;;;;12637051;28;20032;-76
2022/04/23 00:31:13;;;;;;;3.75;3.45;;;;;;;;;;12643117;28;20412;-76
2022/04/23 00:37:15;;;;;;;3.65;3.35;;;;;;;;;;12641908;28;20062;-76
2022/04/23 00:43:30;;;;;;;3.53;3.22;;;;;;;;;;12643023;28;20500;-76
2022/04/23 00:49:33;;;;;;;4.07;3.78;;;;;;;;;;12657668;28;20035;-76
2022/04/23 00:55:35;;;;;;;4.78;4.38;;;;;;;;;;12650327;28;20036;-76
2022/04/23 01:01:39;;;;;;;4.13;3.83;;;;;;;;;;12652553;28;20554;-76
2022/04/23 01:07:43;;;;;;;3.88;3.58;;;;;;;;;;12651448;28;20031;-76
2022/04/23 01:13:45;;;;;;;4.28;3.97;;;;;;;;;;12632982;28;20503;-76
2022/04/23 01:19:47;;;;;;;4.18;3.80;;;;;;;;;;12662215;28;20252;-76
2022/04/23 01:25:54;;;;;;;4.00;3.70;;;;;;;;;;12632451;28;20027;-76
2022/04/23 01:31:55;;;;;;;3.95;3.60;;;;;;;;;;12650112;28;20047;-77
2022/04/23 01:37:57;;;;;;;4.00;3.70;;;;;;;;;;12632061;28;20511;-76
2022/04/23 01:43:59;;;;;;;4.50;4.20;;;;;;;;;;12649543;28;20040;-76
2022/04/23 01:50:01;;;;;;;3.90;3.60;;;;;;;;;;12649416;28;20032;-76
2022/04/23 01:56:03;;;;;;;3.80;3.50;;;;;;;;;;12648732;28;20535;-76
2022/04/23 02:02:06;;;;;;;2.93;2.73;;;;;;;;;;12662618;28;20040;-76
2022/04/23 02:08:09;;;;;;;3.00;2.80;;;;;;;;;;12648799;28;20032;-76
2022/04/23 02:14:10;;;;;;;3.03;2.83;;;;;;;;;;12647862;28;20047;-76
2022/04/23 02:20:13;;;;;;;2.83;2.63;;;;;;;;;;12629833;28;20036;-76
2022/04/23 02:26:15;;;;;;;2.67;2.53;;;;;;;;;;12646442;28;20028;-76
2022/04/23 02:32:16;;;;;;;3.17;2.95;;;;;;;;;;12660228;28;20534;-76
2022/04/23 02:38:18;;;;;;;3.00;2.80;;;;;;;;;;12628898;28;20051;-76
2022/04/23 02:44:20;;;;;;;3.33;3.13;;;;;;;;;;12628429;28;20043;-76
2022/04/23 02:50:38;;;;;;;3.47;3.28;;;;;;;;;;12628481;28;20484;-76
2022/04/23 02:56:39;;;;;;;2.88;2.67;;;;;;;;;;12645220;28;20044;-76
2022/04/23 03:02:41;;;;;;;2.75;2.55;;;;;;;;;;12628433;28;20518;-76
2022/04/23 03:08:43;;;;;;;3.30;3.10;;;;;;;;;;12645041;28;20032;-76
2022/04/23 03:14:45;;;;;;;2.85;2.65;;;;;;;;;;12627132;28;20040;-76
2022/04/23 03:20:47;;;;;;;3.50;3.20;;;;;;;;;;12645290;28;20028;-76
2022/04/23 03:26:48;;;;;;;3.38;3.17;;;;;;;;;;12643808;28;20283;-76
2022/04/23 03:32:50;;;;;;;3.70;3.40;;;;;;;;;;12644431;28;20082;-76
2022/04/23 03:38:53;;;;;;;4.03;3.72;;;;;;;;;;12644658;28;20062;-76
2022/04/23 03:44:55;;;;;;;;;;;;;;;;;;12626869;28;20039;-76
2022/04/23 03:50:56;;;;;;;4.05;3.13;;;;;;;;;;12657595;28;20295;-76
2022/04/23 03:56:58;;;;;;;2.80;2.60;;;;;;;;;;12644043;28;20408;-76
2022/04/23 04:03:00;;;;;;;3.60;2.75;;;;;;;;;;12644822;28;20040;-76
2022/04/23 04:09:02;;;;;;;2.57;2.47;;;;;;;;;;12642631;28;20036;-76
2022/04/23 04:15:05;;;;;;;3.28;2.97;;;;;;;;;;12625222;28;20044;-76
2022/04/23 04:21:08;;;;;;;3.45;3.10;;;;;;;;;;12628809;28;20036;-76
2022/04/23 04:27:09;;;;;;;3.15;2.95;;;;;;;;;;12653460;28;20028;-76
2022/04/23 04:33:11;;;;;;;3.47;3.28;;;;;;;;;;12665027;28;20084;-76
2022/04/23 04:39:14;;;;;;;3.78;3.45;;;;;;;;;;12652881;28;20062;-76
2022/04/23 04:45:16;;;;;;;3.28;3.08;;;;;;;;;;12651456;28;20058;-75
2022/04/23 04:51:18;;;;;;;3.53;3.22;;;;;;;;;;12651095;28;20040;-75
2022/04/23 04:57:19;;;;;;;4.13;3.72;;;;;;;;;;12633949;28;20047;-76
2022/04/23 05:03:21;;;;;;;3.28;3.08;;;;;;;;;;12652531;28;20042;-75
2022/04/23 05:09:23;;;;;;;3.33;3.13;;;;;;;;;;12650178;28;20035;-76
2022/04/23 05:15:25;;;;;;;3.73;3.43;;;;;;;;;;12651029;28;20114;-76
2022/04/23 05:21:27;;;;;;;3.60;3.30;;;;;;;;;;12649921;28;20046;-75
2022/04/23 05:27:28;;;;;;;3.50;3.20;;;;;;;;;;12668088;28;20039;-76
2022/04/23 05:33:30;;;;;;;3.15;2.95;;;;;;;;;;12649140;28;20048;-76
2022/04/23 05:39:32;;;;;;;3.28;3.05;;;;;;;;;;12649943;28;20048;-75
2022/04/23 05:45:34;;;;;;;2.53;2.33;;;;;;;;;;12648592;28;20032;-75
2022/04/23 05:51:36;;;;;;;4.03;3.63;;;;;;;;;;12648252;28;20036;-76
2022/04/23 05:57:38;;;;;;;5.30;4.90;;;;;;;;;;12647706;28;20044;-75
2022/04/23 06:03:41;;;;;;;5.00;4.60;;;;;;;;;;12650154;28;20457;-76
2022/04/23 06:09:43;;;;;;;5.75;5.22;;;;;;;;;;12648517;28;20035;-76
2022/04/23 06:15:44;;;;;;;5.47;4.97;;;;;;;;;;12648326;28;20540;-75
2022/04/23 06:21:46;;;;;;;8.13;7.43;;;;;;;;;;12648110;28;20558;-76
2022/04/23 06:27:50;;;;;;;7.43;6.03;;;;;;;;;;12645935;28;20043;-76
2022/04/23 06:33:52;;;;;;;6.90;6.22;;;;;;;;;;12646673;28;20420;-76
2022/04/23 06:39:53;;;;;;;8.15;7.35;;;;;;;;;;12647006;28;20020;-75
2022/04/23 06:45:55;;;;;;;7.45;6.75;;;;;;;;;;12645394;28;20036;-77
2022/04/23 06:51:57;;;;;;;7.80;7.00;;;;;;;;;;12658123;28;20122;-77
2022/04/23 06:57:59;;;;;;;7.97;7.18;;;;;;;;;;12644670;28;20044;-75
2022/04/23 07:04:00;;;;;;;6.88;6.22;;;;;;;;;;12645768;28;20039;-76
2022/04/23 07:10:02;;;;;;;5.45;5.05;;;;;;;;;;12627633;28;20032;-75
2022/04/23 07:16:04;;;;;;;6.13;5.53;;;;;;;;;;12644182;28;20040;-75
2022/04/23 07:22:06;;;;;;;5.77;5.13;;;;;;;;;;12643837;28;20032;-75
2022/04/23 07:28:08;;;;;;;3.90;3.60;;;;;;;;;;12626632;28;20186;-75
2022/04/23 07:40:30;;;;;;;2.90;2.70;;;;;;;;;;12644515;28;20040;-75
2022/04/23 07:46:32;;;;;;;3.15;2.72;;;;;;;;;;12644065;28;20047;-75
2022/04/23 07:52:35;;;;;;;2.80;2.60;;;;;;;;;;12626057;28;20032;-75
2022/04/23 07:58:36;;;;;;;2.35;2.17;;;;;;;;;;12643343;28;20047;-75
2022/04/23 08:04:38;;;;;;;2.10;2.00;;;;;;;;;;12642473;28;20031;-75
2022/04/23 08:10:40;;;;;;;2.50;2.30;;;;;;;;;;12643729;28;20024;-75
2022/04/23 08:16:42;;;;;;;1.48;1.38;;;;;;;;;;12646100;28;20055;-76
2022/04/23 08:22:43;;;;;;;3.87;3.57;;;;;;;;;;12654973;28;20035;-75
2022/04/23 08:35:06;;;;;;;4.53;4.10;;;;;;;;;;12642110;28;20047;-75
2022/04/23 08:41:08;;;;;;;2.55;1.98;;;;;;;;;;12643189;28;20039;-75
2022/04/23 08:47:11;;;;;;;3.53;2.63;;;;;;;;;;12642848;28;20043;-75
2022/04/23 08:53:17;;;;;;;3.25;2.95;;;;;;;;;;12641613;28;20039;-75
2022/04/23 08:59:20;;;;;;;2.20;2.00;;;;;;;;;;12641499;28;20473;-75
2022/04/23 09:05:24;;;;;;;2.20;2.00;;;;;;;;;;12642171;28;20032;-75
2022/04/23 09:11:35;;;;;;;1.90;1.75;;;;;;;;;;12666231;28;20036;-75
2022/04/23 09:24:10;;;;;;;1.63;1.52;;;;;;;;;;12650818;28;20495;-75
2022/04/23 09:30:12;;;;;;;1.40;1.30;;;;;;;;;;12632484;28;20423;-75
2022/04/23 09:36:14;;;;;;;1.20;1.10;;;;;;;;;;12665310;28;20489;-75
2022/04/23 09:42:17;;;;;;;0.90;0.90;;;;;;;;;;12631775;28;20497;-75
2022/04/23 09:48:19;;;;;;;1.30;1.20;;;;;;;;;;12631383;28;20036;-75
2022/04/23 09:54:21;;;;;;;1.67;1.13;;;;;;;;;;12649184;28;20047;-75
2022/04/23 10:00:22;;;;;;;1.20;0.90;;;;;;;;;;12630719;28;20508;-75
2022/04/23 10:06:24;;;;;;;1.37;1.27;;;;;;;;;;12630670;28;20370;-75
2022/04/23 10:12:27;;;;;;;1.30;1.20;;;;;;;;;;12648260;28;20039;-75
2022/04/23 10:18:29;;;;;;;;;;;;;;;;;;12665781;28;20048;-76
2022/04/23 10:24:33;;;;;;;1.40;1.30;;;;;;;;;;12647738;28;20276;-75
2022/04/23 10:30:35;;;;;;;1.35;1.25;;;;;;;;;;12647507;28;20052;-75
2022/04/23 10:36:43;;;;;;;1.47;1.37;;;;;;;;;;12645833;28;20036;-75
2022/04/23 10:43:03;;;;;;;1.40;1.30;;;;;;;;;;12647121;28;20043;-75
2022/04/23 10:49:15;;;;;;;1.85;1.75;;;;;;;;;;12645202;28;20028;-75
2022/04/23 10:55:17;;;;;;;2.83;2.25;;;;;;;;;;12629161;28;20044;-75
2022/04/23 11:01:22;;;;;;;2.97;2.28;;;;;;;;;;12645952;28;20036;-75
2022/04/23 11:13:50;;;;;;;1.85;1.75;;;;;;;;;;12649220;28;20040;-75
2022/04/23 11:19:52;;;;;;;1.60;1.50;;;;;;;;;;12644691;28;20050;-76
2022/04/23 11:25:57;;;;;;;2.70;2.50;;;;;;;;;;12662520;28;20038;-76
2022/04/23 11:31:59;;;;;;;1.67;1.58;;;;;;;;;;12626021;28;20527;-76
2022/04/23 11:38:01;;;;;;;1.33;1.23;;;;;;;;;;12644564;28;20515;-76
2022/04/23 11:44:12;;;;;;;2.13;2.03;;;;;;;;;;12626437;28;20028;-76
2022/04/23 11:50:17;;;;;;;1.73;1.63;;;;;;;;;;12644092;28;20043;-76
2022/04/23 11:56:22;;;;;;;3.08;2.40;;;;;;;;;;12626348;28;20039;-76
2022/04/23 12:02:25;;;;;;;1.50;1.40;;;;;;;;;;12649066;28;20036;-76
2022/04/23 12:08:26;;;;;;;1.75;1.65;;;;;;;;;;12642503;28;20047;-76
2022/04/23 12:14:28;;;;;;;1.57;1.10;;;;;;;;;;12625440;28;20392;-76
2022/04/23 12:20:35;;;;;;;2.70;2.50;;;;;;;;;;12643911;28;20032;-76
2022/04/23 12:26:38;;;;;;;1.80;1.42;;;;;;;;;;12643055;28;20495;-76
2022/04/23 12:45:22;;;;;;;1.77;1.67;;;;;;;;;;12651879;28;20047;-76
2022/04/23 12:51:24;;;;;;;4.00;1.98;;;;;;;;;;12655700;28;20432;-77
2022/04/23 12:57:25;;;;;;;1.63;1.53;;;;;;;;;;12665495;28;20063;-76
2022/04/23 13:09:30;;;;;;;;;;;;;;;;;;12651655;28;20770;-76
2022/04/23 13:15:31;;;;;;;2.60;2.15;;;;;;;;;;12649777;28;19916;-76
2022/04/23 13:21:34;;;;;;;2.67;2.47;;;;;;;;;;12650890;28;20043;-76
2022/04/23 13:27:36;;;;;;;2.28;2.08;;;;;;;;;;12650448;28;20036;-76
2022/04/23 13:33:38;;;;;;;2.42;2.22;;;;;;;;;;12649612;28;20048;-76
2022/04/23 13:39:40;;;;;;;1.45;1.35;;;;;;;;;;12632048;28;20511;-76
2022/04/23 13:45:42;;;;;;;2.47;1.88;;;;;;;;;;12648097;28;20024;-76
2022/04/23 13:51:44;;;;;;;1.55;1.50;;;;;;;;;;12648936;28;20370;-76
2022/04/23 13:57:46;;;;;;;2.22;2.03;;;;;;;;;;12648799;28;20036;-76
2022/04/23 14:10:09;;;;;;;2.17;1.92;;;;;;;;;;12648356;28;20032;-76
2022/04/23 14:16:11;;;;;;;2.17;1.92;;;;;;;;;;12648194;28;20036;-75
2022/04/23 14:22:13;;;;;;;1.63;1.52;;;;;;;;;;12647851;28;20028;-75
2022/04/23 14:28:15;;;;;;;1.65;1.55;;;;;;;;;;12629203;28;20036;-76
2022/04/23 14:34:17;;;;;;;3.47;2.35;;;;;;;;;;12647258;28;20409;-76
2022/04/23 14:40:25;;;;;;;2.75;2.55;;;;;;;;;;12661010;28;20492;-76
2022/04/23 14:46:28;;;;;;;2.80;2.60;;;;;;;;;;12645610;28;20330;-76
2022/04/23 14:58:51;;;;;;;4.10;2.65;;;;;;;;;;12644660;28;20048;-77
2022/04/23 15:04:53;;;;;;;2.40;2.20;;;;;;;;;;12644634;28;20032;-76
2022/04/23 15:10:54;;;;;;;3.10;2.80;;;;;;;;;;12644447;28;20028;-76
2022/04/23 15:16:56;;;;;;;4.30;2.70;;;;;;;;;;12642228;28;20059;-76
2022/04/23 15:22:58;;;;;;;4.33;2.83;;;;;;;;;;12645194;28;20496;-76
2022/04/23 15:28:59;;;;;;;3.87;3.20;;;;;;;;;;12626693;28;20414;-76
2022/04/23 15:35:01;;;;;;;4.33;3.60;;;;;;;;;;12644812;28;20048;-76
2022/04/23 15:41:03;;;;;;;2.95;2.67;;;;;;;;;;12643617;28;20059;-76
2022/04/23 15:47:05;;;;;;;3.17;2.87;;;;;;;;;;12643840;28;20040;-76
2022/04/23 15:53:07;;;;;;;3.77;3.47;;;;;;;;;;12625636;28;20035;-76
2022/04/23 15:59:08;;;;;;;4.50;4.07;;;;;;;;;;12644015;28;20051;-76
2022/04/23 16:05:10;;;;;;;5.53;5.03;;;;;;;;;;12631122;28;20036;-76
2022/04/23 16:11:12;;;;;;;6.10;5.13;;;;;;;;;;12625438;28;20032;-75
2022/04/23 16:17:13;;;;;;;5.47;4.60;;;;;;;;;;12647122;28;20036;-75
2022/04/23 16:23:15;;;;;;;5.03;3.83;;;;;;;;;;12667947;28;20024;-75
2022/04/23 16:29:17;;;;;;;5.40;4.20;;;;;;;;;;12635115;28;20044;-76
2022/04/23 16:35:19;;;;;;;4.10;3.80;;;;;;;;;;12651630;28;20051;-76
2022/04/23 16:47:42;;;;;;;3.47;2.60;;;;;;;;;;12651377;28;20035;-76
2022/04/23 16:53:43;;;;;;;3.08;2.78;;;;;;;;;;12652174;28;20028;-76
2022/04/23 16:59:45;;;;;;;4.57;2.83;;;;;;;;;;12665609;28;20040;-76
2022/04/23 17:05:46;;;;;;;3.38;3.08;;;;;;;;;;12651543;28;20040;-76
2022/04/23 17:11:48;;;;;;;3.90;3.53;;;;;;;;;;12633085;28;20469;-76
2022/04/23 17:17:50;;;;;;;4.90;3.70;;;;;;;;;;12664296;28;20044;-76
2022/04/23 17:23:52;;;;;;;3.70;3.27;;;;;;;;;;12649654;28;20036;-76
2022/04/23 17:29:54;;;;;;;4.77;3.83;;;;;;;;;;12649620;28;20055;-76
2022/04/23 17:35:56;;;;;;;2.80;2.60;;;;;;;;;;12650161;28;20040;-76
2022/04/23 17:41:58;;;;;;;3.72;3.42;;;;;;;;;;12650565;28;20412;-77
2022/04/23 17:48:00;;;;;;;3.20;3.00;;;;;;;;;;12631617;28;20040;-76
2022/04/23 17:54:02;;;;;;;3.72;2.85;;;;;;;;;;12649221;28;20036;-76
2022/04/23 18:12:45;;;;;;;3.50;3.20;;;;;;;;;;12648661;28;20439;-77
2022/04/23 18:18:47;;;;;;;3.07;2.87;;;;;;;;;;12646818;28;20051;-77
2022/04/23 18:24:50;;;;;;;2.73;2.53;;;;;;;;;;12647528;28;20032;-76
2022/04/23 18:30:51;;;;;;;2.45;2.33;;;;;;;;;;12647171;28;20409;-76
2022/04/23 18:36:56;;;;;;;3.60;3.20;;;;;;;;;;12646135;28;20044;-76
2022/04/23 18:42:59;;;;;;;2.38;2.17;;;;;;;;;;12645943;28;20472;-76
2022/04/23 18:49:01;;;;;;;2.57;2.37;;;;;;;;;;12646707;28;20555;-76
2022/04/23 18:55:03;;;;;;;2.55;2.35;;;;;;;;;;12644931;28;20293;-75
2022/04/23 19:01:08;;;;;;;2.67;2.47;;;;;;;;;;12630843;28;20103;-76
2022/04/23 19:07:10;;;;;;;2.20;1.80;;;;;;;;;;12656946;28;20059;-75
2022/04/23 19:13:12;;;;;;;3.53;2.03;;;;;;;;;;12627131;28;20043;-75
2022/04/23 19:19:13;;;;;;;3.97;2.93;;;;;;;;;;12643881;28;20043;-75
2022/04/23 19:31:36;;;;;;;4.40;2.40;;;;;;;;;;12644895;28;20048;-75
2022/04/23 19:37:38;;;;;;;5.00;3.47;;;;;;;;;;12662629;28;20055;-75
2022/04/23 19:43:40;;;;;;;3.75;2.65;;;;;;;;;;12644232;28;20028;-75
2022/04/23 19:49:42;;;;;;;3.75;2.03;;;;;;;;;;12643686;28;20039;-75
2022/04/23 19:55:43;;;;;;;2.75;1.90;;;;;;;;;;12643668;28;20039;-76
2022/04/23 20:01:46;;;;;;;2.45;2.25;;;;;;;;;;12644073;28;20497;-76
2022/04/23 20:07:49;;;;;;;3.92;3.08;;;;;;;;;;12657395;28;20032;-76
2022/04/23 20:13:51;;;;;;;6.57;3.40;;;;;;;;;;12643306;28;20040;-76
2022/04/23 20:19:52;;;;;;;8.45;4.03;;;;;;;;;;12643122;28;20032;-76
2022/04/23 20:25:54;;;;;;;4.85;3.60;;;;;;;;;;12643021;28;20039;-76
2022/04/23 20:31:57;;;;;;;5.70;5.13;;;;;;;;;;12565723;28;20060;-77
2022/04/23 20:38:16;;;;;;;5.97;4.90;;;;;;;;;;12557161;28;20056;-76
2022/04/23 20:44:19;;;;;;;6.72;4.38;;;;;;;;;;12542931;28;20037;-77
2022/04/23 20:50:23;;;;;;;7.57;5.80;;;;;;;;;;12541309;28;20029;-77
2022/04/23 20:56:25;;;;;;;8.00;6.97;;;;;;;;;;12541127;28;20037;-77
2022/04/23 21:02:27;;;;;;;7.28;6.55;;;;;;;;;;12545558;28;20044;-75
2022/04/23 21:08:29;;;;;;;7.85;7.10;;;;;;;;;;12551569;28;20029;-75
2022/04/23 21:14:31;;;;;;;7.85;7.05;;;;;;;;;;12550862;28;20444;-75
2022/04/23 21:20:33;;;;;;;8.98;8.02;;;;;;;;;;12532964;28;20406;-75
2022/04/23 21:26:34;;;;;;;10.65;9.65;;;;;;;;;;12549845;28;20412;-75
2022/04/23 21:32:36;;;;;;;11.32;10.23;;;;;;;;;;12550222;28;20064;-75
2022/04/23 21:38:38;;;;;;;12.73;11.20;;;;;;;;;;12550290;28;20049;-75
2022/04/23 21:44:52;;;;;;;12.35;11.15;;;;;;;;;;12549162;28;20640;-75
2022/04/23 21:50:54;;;;;;;14.63;13.23;;;;;;;;;;12549599;28;20056;-75
2022/04/23 21:56:56;;;;;;;13.52;11.95;;;;;;;;;;12548169;28;20045;-75
2022/04/23 22:02:57;;;;;;;10.40;9.37;;;;;;;;;;12546906;28;20041;-75
2022/04/23 22:08:59;;;;;;;12.87;11.57;;;;;;;;;;12548494;28;20048;-74
2022/04/23 22:15:01;;;;;;;11.60;10.60;;;;;;;;;;12547968;28;20287;-75
2022/04/23 22:21:03;;;;;;;8.93;8.07;;;;;;;;;;12562284;28;20048;-75
2022/04/23 22:27:05;;;;;;;9.13;8.32;;;;;;;;;;12548207;28;20040;-75
2022/04/23 22:33:07;;;;;;;11.00;8.57;;;;;;;;;;12620708;28;20048;-75
2022/04/23 22:39:08;;;;;;;8.48;7.55;;;;;;;;;;12647257;28;20392;-75
2022/04/23 22:45:10;;;;;;;7.93;7.10;;;;;;;;;;12628920;28;20043;-75
2022/04/23 22:51:12;;;;;;;5.47;4.93;;;;;;;;;;12645518;28;20032;-75
2022/04/23 22:57:14;;;;;;;5.72;4.88;;;;;;;;;;12633737;28;20047;-76
2022/04/23 23:03:16;;;;;;;5.00;4.40;;;;;;;;;;12645917;28;20044;-75
2022/04/23 23:09:17;;;;;;;4.75;3.97;;;;;;;;;;12644655;28;20039;-75
2022/04/23 23:15:19;;;;;;;5.23;4.73;;;;;;;;;;12645669;28;20040;-76
2022/04/23 23:21:21;;;;;;;5.23;3.50;;;;;;;;;;12643962;28;20036;-75
2022/04/23 23:27:24;;;;;;;;;;;;;;;;;;12645021;28;20044;-77
2022/04/23 23:33:25;;;;;;;1.95;1.55;;;;;;;;;;12658636;28;19920;-76
2022/04/23 23:39:27;;;;;;;4.13;2.13;;;;;;;;;;12644575;28;20067;-76
2022/04/23 23:45:29;;;;;;;4.05;2.47;;;;;;;;;;12644757;28;20054;-76
2022/04/23 23:51:30;;;;;;;2.22;1.98;;;;;;;;;;12644328;28;20043;-76
2022/04/23 23:57:32;;;;;;;3.90;2.00;;;;;;;;;;12643829;28;20485;-76
